sensor_id;sensor_type;location;lat;lon;timestamp;temperature;humidity
7143;DHT22;3613;48.902;9.204;2023-03-01T00:01:45;-2.20;99.90
7143;DHT22;3613;48.902;9.204;2023-03-01T00:04:10;-1.90;99.90
7143;DHT22;3613;48.902;9.204;2023-03-01T00:06:36;0.10;99.90
7143;DHT22;3613;48.902;9.204;2023-03-01T00:09:03;-2.30;99.90
7143;DHT22;3613;48.902;9.204;2023-03-01T00:11:30;-2.40;99.90
7143;DHT22;3613;48.902;9.204;2023-03-01T00:13:58;-2.40;99.90
7143;DHT22;3613;48.902;9.204;2023-03-01T00:16:30;-2.40;99.90
7143;DHT22;3613;48.902;9.204;2023-03-01T00:18:57;-2.40;99.90
7143;DHT22;3613;48.902;9.204;2023-03-01T00:21:23;-2.40;99.90
7143;DHT22;3613;48.902;9.204;2023-03-01T00:23:49;-2.30;99.90
7143;DHT22;3613;48.902;9.204;2023-03-01T00:26:23;-2.30;99.90
7143;DHT22;3613;48.902;9.204;2023-03-01T00:28:50;-2.40;99.90
7143;DHT22;3613;48.902;9.204;2023-03-01T00:31:19;-2.40;99.90
7143;DHT22;3613;48.902;9.204;2023-03-01T00:33:45;-2.50;99.90
7143;DHT22;3613;48.902;9.204;2023-03-01T00:36:12;-2.40;99.90
7143;DHT22;3613;48.902;9.204;2023-03-01T00:38:43;-2.50;99.90
7143;DHT22;3613;48.902;9.204;2023-03-01T00:41:11;-1.20;99.90
7143;DHT22;3613;48.902;9.204;2023-03-01T00:43:37;-2.50;99.90
7143;DHT22;3613;48.902;9.204;2023-03-01T00:46:08;-2.50;99.90
7143;DHT22;3613;48.902;9.204;2023-03-01T00:48:35;-2.40;99.90
7143;DHT22;3613;48.902;9.204;2023-03-01T00:51:11;-2.30;99.90
7143;DHT22;3613;48.902;9.204;2023-03-01T00:53:40;-2.30;99.90
7143;DHT22;3613;48.902;9.204;2023-03-01T00:56:07;-2.40;99.90
7143;DHT22;3613;48.902;9.204;2023-03-01T00:58:34;-2.40;99.90
7143;DHT22;3613;48.902;9.204;2023-03-01T01:01:22;-2.30;99.90
7143;DHT22;3613;48.902;9.204;2023-03-01T01:04:12;-2.40;99.90
7143;DHT22;3613;48.902;9.204;2023-03-01T01:06:45;-2.20;99.90
7143;DHT22;3613;48.902;9.204;2023-03-01T01:09:16;-2.20;99.90
7143;DHT22;3613;48.902;9.204;2023-03-01T01:11:47;-2.10;99.90
7143;DHT22;3613;48.902;9.204;2023-03-01T01:14:16;-2.00;99.90
7143;DHT22;3613;48.902;9.204;2023-03-01T01:16:42;-2.00;99.90
7143;DHT22;3613;48.902;9.204;2023-03-01T01:19:10;-1.90;99.90
7143;DHT22;3613;48.902;9.204;2023-03-01T01:21:36;-1.70;99.90
7143;DHT22;3613;48.902;9.204;2023-03-01T01:24:03;-1.70;99.90
7143;DHT22;3613;48.902;9.204;2023-03-01T01:26:33;-1.70;99.90
7143;DHT22;3613;48.902;9.204;2023-03-01T01:29:01;-1.60;99.90
7143;DHT22;3613;48.902;9.204;2023-03-01T01:31:28;-1.60;99.90
7143;DHT22;3613;48.902;9.204;2023-03-01T01:33:55;-1.80;99.90
7143;DHT22;3613;48.902;9.204;2023-03-01T01:36:21;-1.80;99.90
7143;DHT22;3613;48.902;9.204;2023-03-01T01:38:47;-1.90;99.90
7143;DHT22;3613;48.902;9.204;2023-03-01T01:41:16;-1.80;99.90
7143;DHT22;3613;48.902;9.204;2023-03-01T01:43:45;-1.90;99.90
7143;DHT22;3613;48.902;9.204;2023-03-01T01:46:25;-2.00;99.90
7143;DHT22;3613;48.902;9.204;2023-03-01T01:51:48;-2.00;99.90
7143;DHT22;3613;48.902;9.204;2023-03-01T01:54:49;-2.00;99.90
7143;DHT22;3613;48.902;9.204;2023-03-01T01:57:19;-2.00;99.90
7143;DHT22;3613;48.902;9.204;2023-03-01T01:59:51;-2.10;99.90
7143;DHT22;3613;48.902;9.204;2023-03-01T02:02:20;-2.00;99.90
7143;DHT22;3613;48.902;9.204;2023-03-01T02:04:48;-1.80;99.90
7143;DHT22;3613;48.902;9.204;2023-03-01T02:07:21;-1.70;99.90
7143;DHT22;3613;48.902;9.204;2023-03-01T02:09:52;-1.50;99.90
7143;DHT22;3613;48.902;9.204;2023-03-01T02:12:21;-1.40;99.90
7143;DHT22;3613;48.902;9.204;2023-03-01T02:14:48;-1.30;99.90
7143;DHT22;3613;48.902;9.204;2023-03-01T02:17:15;-1.20;99.90
7143;DHT22;3613;48.902;9.204;2023-03-01T02:20:06;-1.30;99.90
7143;DHT22;3613;48.902;9.204;2023-03-01T02:22:38;-1.20;99.90
7143;DHT22;3613;48.902;9.204;2023-03-01T02:30:26;-0.90;99.90
7143;DHT22;3613;48.902;9.204;2023-03-01T02:32:54;-0.90;99.90
7143;DHT22;3613;48.902;9.204;2023-03-01T02:35:22;-0.80;99.90
7143;DHT22;3613;48.902;9.204;2023-03-01T02:37:48;-0.70;99.90
7143;DHT22;3613;48.902;9.204;2023-03-01T02:40:17;-0.70;99.90
7143;DHT22;3613;48.902;9.204;2023-03-01T02:42:51;-0.40;99.90
7143;DHT22;3613;48.902;9.204;2023-03-01T02:45:20;-0.60;99.90
7143;DHT22;3613;48.902;9.204;2023-03-01T02:47:48;-0.50;99.90
7143;DHT22;3613;48.902;9.204;2023-03-01T02:50:25;-0.50;99.90
7143;DHT22;3613;48.902;9.204;2023-03-01T02:53:21;-0.50;99.90
7143;DHT22;3613;48.902;9.204;2023-03-01T02:55:47;-0.60;99.90
7143;DHT22;3613;48.902;9.204;2023-03-01T02:58:13;-0.40;99.90
7143;DHT22;3613;48.902;9.204;2023-03-01T03:00:42;-0.40;99.90
7143;DHT22;3613;48.902;9.204;2023-03-01T03:03:17;-0.30;99.90
7143;DHT22;3613;48.902;9.204;2023-03-01T03:05:44;-0.20;99.90
7143;DHT22;3613;48.902;9.204;2023-03-01T03:08:13;-0.20;99.90
7143;DHT22;3613;48.902;9.204;2023-03-01T03:10:40;-0.10;99.90
7143;DHT22;3613;48.902;9.204;2023-03-01T03:13:14;0.00;99.90
7143;DHT22;3613;48.902;9.204;2023-03-01T03:15:45;-0.10;99.90
7143;DHT22;3613;48.902;9.204;2023-03-01T03:18:13;-0.10;99.90
7143;DHT22;3613;48.902;9.204;2023-03-01T03:20:40;-0.10;99.90
7143;DHT22;3613;48.902;9.204;2023-03-01T03:23:07;-0.10;99.90
7143;DHT22;3613;48.902;9.204;2023-03-01T03:25:33;-0.10;99.90
7143;DHT22;3613;48.902;9.204;2023-03-01T03:28:04;-0.20;99.90
7143;DHT22;3613;48.902;9.204;2023-03-01T03:30:36;-0.20;99.90
7143;DHT22;3613;48.902;9.204;2023-03-01T03:33:04;-0.20;99.90
7143;DHT22;3613;48.902;9.204;2023-03-01T03:35:50;-0.20;99.90
7143;DHT22;3613;48.902;9.204;2023-03-01T03:38:19;-0.10;99.90
7143;DHT22;3613;48.902;9.204;2023-03-01T03:43:21;-0.10;99.90
7143;DHT22;3613;48.902;9.204;2023-03-01T03:45:49;-0.10;99.90
7143;DHT22;3613;48.902;9.204;2023-03-01T03:48:15;-0.10;99.90
7143;DHT22;3613;48.902;9.204;2023-03-01T03:50:48;-0.10;99.90
7143;DHT22;3613;48.902;9.204;2023-03-01T03:53:14;-0.10;99.90
7143;DHT22;3613;48.902;9.204;2023-03-01T03:55:43;-0.10;99.90
7143;DHT22;3613;48.902;9.204;2023-03-01T03:58:12;0.00;99.90
7143;DHT22;3613;48.902;9.204;2023-03-01T04:00:44;-0.10;99.90
7143;DHT22;3613;48.902;9.204;2023-03-01T04:03:11;0.00;99.90
7143;DHT22;3613;48.902;9.204;2023-03-01T04:05:39;0.00;99.90
7143;DHT22;3613;48.902;9.204;2023-03-01T04:08:05;0.00;99.90
7143;DHT22;3613;48.902;9.204;2023-03-01T04:10:45;0.00;99.90
7143;DHT22;3613;48.902;9.204;2023-03-01T04:13:12;0.00;99.90
7143;DHT22;3613;48.902;9.204;2023-03-01T04:15:41;0.00;99.90
7143;DHT22;3613;48.902;9.204;2023-03-01T04:18:12;-0.10;99.90
7143;DHT22;3613;48.902;9.204;2023-03-01T04:20:38;0.00;99.90
7143;DHT22;3613;48.902;9.204;2023-03-01T04:25:45;-0.10;99.90
7143;DHT22;3613;48.902;9.204;2023-03-01T04:28:14;0.00;99.90
7143;DHT22;3613;48.902;9.204;2023-03-01T04:30:39;0.00;99.90
7143;DHT22;3613;48.902;9.204;2023-03-01T04:33:06;0.00;99.90
7143;DHT22;3613;48.902;9.204;2023-03-01T04:35:32;0.00;99.90
7143;DHT22;3613;48.902;9.204;2023-03-01T04:37:58;0.00;99.90
7143;DHT22;3613;48.902;9.204;2023-03-01T04:40:24;0.00;99.90
7143;DHT22;3613;48.902;9.204;2023-03-01T04:42:52;0.10;99.90
7143;DHT22;3613;48.902;9.204;2023-03-01T04:45:18;-0.90;99.90
7143;DHT22;3613;48.902;9.204;2023-03-01T04:47:45;0.10;99.90
7143;DHT22;3613;48.902;9.204;2023-03-01T04:50:13;0.20;99.90
7143;DHT22;3613;48.902;9.204;2023-03-01T04:52:39;0.20;99.90
7143;DHT22;3613;48.902;9.204;2023-03-01T04:55:05;0.30;99.90
7143;DHT22;3613;48.902;9.204;2023-03-01T04:57:34;0.20;99.90
7143;DHT22;3613;48.902;9.204;2023-03-01T04:59:59;0.20;99.90
7143;DHT22;3613;48.902;9.204;2023-03-01T05:02:25;0.20;99.90
7143;DHT22;3613;48.902;9.204;2023-03-01T05:04:51;0.20;99.90
7143;DHT22;3613;48.902;9.204;2023-03-01T05:07:17;0.20;99.90
7143;DHT22;3613;48.902;9.204;2023-03-01T05:09:48;0.30;99.90
7143;DHT22;3613;48.902;9.204;2023-03-01T05:12:14;0.20;99.90
7143;DHT22;3613;48.902;9.204;2023-03-01T05:14:41;0.20;99.90
7143;DHT22;3613;48.902;9.204;2023-03-01T05:17:09;0.10;99.90
7143;DHT22;3613;48.902;9.204;2023-03-01T05:19:34;0.10;99.90
7143;DHT22;3613;48.902;9.204;2023-03-01T05:22:01;0.10;99.90
7143;DHT22;3613;48.902;9.204;2023-03-01T05:24:32;0.10;99.90
7143;DHT22;3613;48.902;9.204;2023-03-01T05:26:59;1.10;99.90
7143;DHT22;3613;48.902;9.204;2023-03-01T05:29:26;0.00;99.90
7143;DHT22;3613;48.902;9.204;2023-03-01T05:31:53;-0.10;99.90
7143;DHT22;3613;48.902;9.204;2023-03-01T05:34:30;-0.10;99.90
7143;DHT22;3613;48.902;9.204;2023-03-01T05:36:57;-0.10;99.90
7143;DHT22;3613;48.902;9.204;2023-03-01T05:39:29;-0.10;99.90
7143;DHT22;3613;48.902;9.204;2023-03-01T05:42:01;-0.10;99.90
7143;DHT22;3613;48.902;9.204;2023-03-01T05:44:29;-0.10;99.90
7143;DHT22;3613;48.902;9.204;2023-03-01T05:46:57;-0.10;99.90
7143;DHT22;3613;48.902;9.204;2023-03-01T05:49:22;-0.10;99.90
7143;DHT22;3613;48.902;9.204;2023-03-01T05:51:52;-0.20;99.90
7143;DHT22;3613;48.902;9.204;2023-03-01T05:54:19;-0.20;99.90
7143;DHT22;3613;48.902;9.204;2023-03-01T05:56:47;-0.30;99.90
7143;DHT22;3613;48.902;9.204;2023-03-01T05:59:13;-0.30;99.90
7143;DHT22;3613;48.902;9.204;2023-03-01T06:01:40;-0.30;99.90
7143;DHT22;3613;48.902;9.204;2023-03-01T06:04:06;-0.30;99.90
7143;DHT22;3613;48.902;9.204;2023-03-01T06:06:36;-0.30;99.90
7143;DHT22;3613;48.902;9.204;2023-03-01T06:09:06;-0.30;99.90
7143;DHT22;3613;48.902;9.204;2023-03-01T06:11:34;-0.30;99.90
7143;DHT22;3613;48.902;9.204;2023-03-01T06:14:02;-0.20;99.90
7143;DHT22;3613;48.902;9.204;2023-03-01T06:16:28;-0.20;99.90
7143;DHT22;3613;48.902;9.204;2023-03-01T06:18:54;0.10;99.90
7143;DHT22;3613;48.902;9.204;2023-03-01T06:21:19;-0.30;99.90
7143;DHT22;3613;48.902;9.204;2023-03-01T06:23:47;-0.30;99.90
7143;DHT22;3613;48.902;9.204;2023-03-01T06:26:13;-0.20;99.90
7143;DHT22;3613;48.902;9.204;2023-03-01T06:28:38;-0.30;99.90
7143;DHT22;3613;48.902;9.204;2023-03-01T06:31:04;-0.20;99.90
7143;DHT22;3613;48.902;9.204;2023-03-01T06:33:36;-0.30;99.90
7143;DHT22;3613;48.902;9.204;2023-03-01T06:36:03;-0.20;99.90
7143;DHT22;3613;48.902;9.204;2023-03-01T06:38:28;-0.30;99.90
7143;DHT22;3613;48.902;9.204;2023-03-01T06:40:55;-0.30;99.90
7143;DHT22;3613;48.902;9.204;2023-03-01T06:43:24;-0.40;99.90
7143;DHT22;3613;48.902;9.204;2023-03-01T06:45:50;-0.40;99.90
7143;DHT22;3613;48.902;9.204;2023-03-01T06:48:16;-0.40;99.90
7143;DHT22;3613;48.902;9.204;2023-03-01T06:50:41;-0.20;99.90
7143;DHT22;3613;48.902;9.204;2023-03-01T06:53:09;-0.40;99.90
7143;DHT22;3613;48.902;9.204;2023-03-01T06:55:37;-0.40;99.90
7143;DHT22;3613;48.902;9.204;2023-03-01T06:58:08;-0.40;99.90
7143;DHT22;3613;48.902;9.204;2023-03-01T07:00:34;-0.40;99.90
7143;DHT22;3613;48.902;9.204;2023-03-01T07:03:00;-0.30;99.90
7143;DHT22;3613;48.902;9.204;2023-03-01T07:05:28;-0.20;99.90
7143;DHT22;3613;48.902;9.204;2023-03-01T07:07:56;-0.10;99.90
7143;DHT22;3613;48.902;9.204;2023-03-01T07:10:22;0.10;99.90
7143;DHT22;3613;48.902;9.204;2023-03-01T07:12:48;0.50;99.90
7143;DHT22;3613;48.902;9.204;2023-03-01T07:15:15;0.70;99.90
7143;DHT22;3613;48.902;9.204;2023-03-01T07:17:41;1.20;99.90
7143;DHT22;3613;48.902;9.204;2023-03-01T07:20:07;1.60;99.90
7143;DHT22;3613;48.902;9.204;2023-03-01T07:22:33;2.00;99.90
7143;DHT22;3613;48.902;9.204;2023-03-01T07:24:59;2.40;99.90
7143;DHT22;3613;48.902;9.204;2023-03-01T07:27:24;2.60;99.90
7143;DHT22;3613;48.902;9.204;2023-03-01T07:29:50;2.90;99.90
7143;DHT22;3613;48.902;9.204;2023-03-01T07:32:15;2.90;99.90
7143;DHT22;3613;48.902;9.204;2023-03-01T07:34:41;3.00;99.90
7143;DHT22;3613;48.902;9.204;2023-03-01T07:37:07;3.00;99.90
7143;DHT22;3613;48.902;9.204;2023-03-01T07:39:32;3.00;99.90
7143;DHT22;3613;48.902;9.204;2023-03-01T07:41:58;3.00;99.90
7143;DHT22;3613;48.902;9.204;2023-03-01T07:44:24;3.40;99.90
7143;DHT22;3613;48.902;9.204;2023-03-01T07:46:50;3.70;99.90
7143;DHT22;3613;48.902;9.204;2023-03-01T07:49:20;3.50;99.90
7143;DHT22;3613;48.902;9.204;2023-03-01T07:51:48;4.00;99.90
7143;DHT22;3613;48.902;9.204;2023-03-01T07:54:13;4.20;99.90
7143;DHT22;3613;48.902;9.204;2023-03-01T07:56:39;4.20;99.90
7143;DHT22;3613;48.902;9.204;2023-03-01T07:59:06;4.20;99.90
7143;DHT22;3613;48.902;9.204;2023-03-01T08:01:31;4.20;99.90
7143;DHT22;3613;48.902;9.204;2023-03-01T08:03:59;4.10;99.90
7143;DHT22;3613;48.902;9.204;2023-03-01T08:06:27;4.70;99.90
7143;DHT22;3613;48.902;9.204;2023-03-01T08:08:53;4.90;99.90
7143;DHT22;3613;48.902;9.204;2023-03-01T08:11:20;5.80;99.90
7143;DHT22;3613;48.902;9.204;2023-03-01T08:13:50;4.70;99.90
7143;DHT22;3613;48.902;9.204;2023-03-01T08:16:17;5.30;99.90
7143;DHT22;3613;48.902;9.204;2023-03-01T08:18:43;5.70;99.90
7143;DHT22;3613;48.902;9.204;2023-03-01T08:21:16;5.60;99.90
7143;DHT22;3613;48.902;9.204;2023-03-01T08:23:43;4.70;99.90
7143;DHT22;3613;48.902;9.204;2023-03-01T08:26:12;4.60;99.90
7143;DHT22;3613;48.902;9.204;2023-03-01T08:28:41;4.50;99.90
7143;DHT22;3613;48.902;9.204;2023-03-01T08:31:24;4.30;99.90
7143;DHT22;3613;48.902;9.204;2023-03-01T08:33:55;4.20;99.90
7143;DHT22;3613;48.902;9.204;2023-03-01T08:36:22;3.80;99.90
7143;DHT22;3613;48.902;9.204;2023-03-01T08:38:48;3.80;99.90
7143;DHT22;3613;48.902;9.204;2023-03-01T08:41:14;3.60;99.90
7143;DHT22;3613;48.902;9.204;2023-03-01T08:43:40;3.60;99.90
7143;DHT22;3613;48.902;9.204;2023-03-01T08:46:09;4.10;99.90
7143;DHT22;3613;48.902;9.204;2023-03-01T08:48:34;4.30;99.90
7143;DHT22;3613;48.902;9.204;2023-03-01T08:51:17;4.10;99.90
7143;DHT22;3613;48.902;9.204;2023-03-01T08:53:45;4.30;99.90
7143;DHT22;3613;48.902;9.204;2023-03-01T08:56:13;4.90;99.90
7143;DHT22;3613;48.902;9.204;2023-03-01T08:58:40;5.00;99.90
7143;DHT22;3613;48.902;9.204;2023-03-01T09:01:13;5.00;99.90
7143;DHT22;3613;48.902;9.204;2023-03-01T09:03:39;5.10;99.90
7143;DHT22;3613;48.902;9.204;2023-03-01T09:06:08;5.00;99.90
7143;DHT22;3613;48.902;9.204;2023-03-01T09:08:42;5.30;99.90
7143;DHT22;3613;48.902;9.204;2023-03-01T09:11:10;4.80;99.90
7143;DHT22;3613;48.902;9.204;2023-03-01T09:13:36;5.00;99.90
7143;DHT22;3613;48.902;9.204;2023-03-01T09:16:06;4.80;99.90
7143;DHT22;3613;48.902;9.204;2023-03-01T09:18:33;4.70;99.90
7143;DHT22;3613;48.902;9.204;2023-03-01T09:21:07;4.90;99.90
7143;DHT22;3613;48.902;9.204;2023-03-01T09:23:44;4.90;99.90
7143;DHT22;3613;48.902;9.204;2023-03-01T09:26:12;5.20;99.90
7143;DHT22;3613;48.902;9.204;2023-03-01T09:28:39;5.20;99.90
7143;DHT22;3613;48.902;9.204;2023-03-01T09:31:08;5.00;99.90
7143;DHT22;3613;48.902;9.204;2023-03-01T09:33:41;5.30;99.90
7143;DHT22;3613;48.902;9.204;2023-03-01T09:36:11;5.40;99.90
7143;DHT22;3613;48.902;9.204;2023-03-01T09:38:37;5.30;99.90
7143;DHT22;3613;48.902;9.204;2023-03-01T09:43:55;5.00;99.90
7143;DHT22;3613;48.902;9.204;2023-03-01T09:46:24;5.00;99.90
7143;DHT22;3613;48.902;9.204;2023-03-01T09:48:55;5.20;99.90
7143;DHT22;3613;48.902;9.204;2023-03-01T09:51:29;5.60;99.90
7143;DHT22;3613;48.902;9.204;2023-03-01T09:53:55;5.70;99.90
7143;DHT22;3613;48.902;9.204;2023-03-01T09:56:46;6.00;99.90
7143;DHT22;3613;48.902;9.204;2023-03-01T10:00:01;6.20;99.90
7143;DHT22;3613;48.902;9.204;2023-03-01T10:02:39;5.90;99.90
7143;DHT22;3613;48.902;9.204;2023-03-01T10:05:17;6.00;99.90
7143;DHT22;3613;48.902;9.204;2023-03-01T10:10:47;6.30;99.90
7143;DHT22;3613;48.902;9.204;2023-03-01T10:13:19;6.60;99.90
7143;DHT22;3613;48.902;9.204;2023-03-01T10:16:17;6.50;99.90
7143;DHT22;3613;48.902;9.204;2023-03-01T10:18:45;6.50;99.90
7143;DHT22;3613;48.902;9.204;2023-03-01T10:21:19;6.90;99.90
7143;DHT22;3613;48.902;9.204;2023-03-01T10:23:46;6.90;99.90
7143;DHT22;3613;48.902;9.204;2023-03-01T10:29:12;6.70;99.90
7143;DHT22;3613;48.902;9.204;2023-03-01T10:31:46;6.70;99.90
7143;DHT22;3613;48.902;9.204;2023-03-01T10:34:16;6.50;99.90
7143;DHT22;3613;48.902;9.204;2023-03-01T10:36:52;6.50;99.90
7143;DHT22;3613;48.902;9.204;2023-03-01T10:39:23;6.50;99.90
7143;DHT22;3613;48.902;9.204;2023-03-01T10:41:54;6.50;99.90
7143;DHT22;3613;48.902;9.204;2023-03-01T10:44:47;6.60;99.90
7143;DHT22;3613;48.902;9.204;2023-03-01T10:52:21;6.80;99.90
7143;DHT22;3613;48.902;9.204;2023-03-01T10:57:37;7.00;99.90
7143;DHT22;3613;48.902;9.204;2023-03-01T11:00:24;6.90;99.90
7143;DHT22;3613;48.902;9.204;2023-03-01T11:03:02;6.80;99.90
7143;DHT22;3613;48.902;9.204;2023-03-01T11:05:29;7.30;99.90
7143;DHT22;3613;48.902;9.204;2023-03-01T11:07:59;7.70;99.90
7143;DHT22;3613;48.902;9.204;2023-03-01T11:10:28;8.20;99.90
7143;DHT22;3613;48.902;9.204;2023-03-01T11:13:16;8.10;99.30
7143;DHT22;3613;48.902;9.204;2023-03-01T11:15:42;8.20;99.70
7143;DHT22;3613;48.902;9.204;2023-03-01T11:18:22;7.90;99.20
7143;DHT22;3613;48.902;9.204;2023-03-01T11:20:50;7.70;99.40
7143;DHT22;3613;48.902;9.204;2023-03-01T11:23:20;7.80;99.90
7143;DHT22;3613;48.902;9.204;2023-03-01T11:25:55;8.20;99.10
7143;DHT22;3613;48.902;9.204;2023-03-01T11:28:22;8.20;97.10
7143;DHT22;3613;48.902;9.204;2023-03-01T11:30:59;8.40;97.80
7143;DHT22;3613;48.902;9.204;2023-03-01T11:33:59;8.30;97.90
7143;DHT22;3613;48.902;9.204;2023-03-01T11:36:51;8.30;97.60
7143;DHT22;3613;48.902;9.204;2023-03-01T11:39:40;8.30;96.10
7143;DHT22;3613;48.902;9.204;2023-03-01T11:42:52;8.40;96.60
7143;DHT22;3613;48.902;9.204;2023-03-01T11:45:22;8.60;95.70
7143;DHT22;3613;48.902;9.204;2023-03-01T11:50:28;8.90;95.20
7143;DHT22;3613;48.902;9.204;2023-03-01T12:09:31;9.70;89.50
7143;DHT22;3613;48.902;9.204;2023-03-01T12:22:54;10.30;83.00
7143;DHT22;3613;48.902;9.204;2023-03-01T12:25:37;10.30;84.00
7143;DHT22;3613;48.902;9.204;2023-03-01T12:28:30;10.40;82.60
7143;DHT22;3613;48.902;9.204;2023-03-01T12:31:15;10.80;81.00
7143;DHT22;3613;48.902;9.204;2023-03-01T12:50:23;11.50;77.60
7143;DHT22;3613;48.902;9.204;2023-03-01T12:52:57;9.50;74.30
7143;DHT22;3613;48.902;9.204;2023-03-01T12:55:32;10.70;73.10
7143;DHT22;3613;48.902;9.204;2023-03-01T13:00:54;11.60;73.80
7143;DHT22;3613;48.902;9.204;2023-03-01T13:11:46;12.30;69.50
7143;DHT22;3613;48.902;9.204;2023-03-01T13:16:49;12.30;68.30
7143;DHT22;3613;48.902;9.204;2023-03-01T13:21:48;11.60;69.00
7143;DHT22;3613;48.902;9.204;2023-03-01T13:24:40;11.60;70.80
7143;DHT22;3613;48.902;9.204;2023-03-01T13:29:47;11.90;70.70
7143;DHT22;3613;48.902;9.204;2023-03-01T13:32:37;11.80;70.60
7143;DHT22;3613;48.902;9.204;2023-03-01T13:37:42;12.10;70.80
7143;DHT22;3613;48.902;9.204;2023-03-01T13:42:45;13.00;67.60
7143;DHT22;3613;48.902;9.204;2023-03-01T13:47:45;12.10;66.90
7143;DHT22;3613;48.902;9.204;2023-03-01T13:50:20;11.70;68.40
7143;DHT22;3613;48.902;9.204;2023-03-01T13:52:55;11.40;69.40
7143;DHT22;3613;48.902;9.204;2023-03-01T13:57:59;9.60;77.00
7143;DHT22;3613;48.902;9.204;2023-03-01T14:00:37;8.70;82.30
7143;DHT22;3613;48.902;9.204;2023-03-01T14:03:18;8.30;86.70
7143;DHT22;3613;48.902;9.204;2023-03-01T14:08:33;7.70;91.90
7143;DHT22;3613;48.902;9.204;2023-03-01T14:19:16;7.60;95.50
7143;DHT22;3613;48.902;9.204;2023-03-01T14:21:45;7.50;95.80
7143;DHT22;3613;48.902;9.204;2023-03-01T14:24:21;7.60;97.00
7143;DHT22;3613;48.902;9.204;2023-03-01T14:26:49;7.60;97.70
7143;DHT22;3613;48.902;9.204;2023-03-01T14:31:51;7.60;97.90
7143;DHT22;3613;48.902;9.204;2023-03-01T14:34:26;7.60;97.60
7143;DHT22;3613;48.902;9.204;2023-03-01T14:36:51;7.50;97.80
7143;DHT22;3613;48.902;9.204;2023-03-01T14:39:20;7.50;98.00
7143;DHT22;3613;48.902;9.204;2023-03-01T14:41:46;7.50;98.40
7143;DHT22;3613;48.902;9.204;2023-03-01T14:44:22;7.50;98.80
7143;DHT22;3613;48.902;9.204;2023-03-01T14:46:55;7.60;98.90
7143;DHT22;3613;48.902;9.204;2023-03-01T14:49:27;7.60;98.90
7143;DHT22;3613;48.902;9.204;2023-03-01T14:52:02;7.60;99.10
7143;DHT22;3613;48.902;9.204;2023-03-01T14:54:47;7.70;99.40
7143;DHT22;3613;48.902;9.204;2023-03-01T14:57:15;7.70;98.80
7143;DHT22;3613;48.902;9.204;2023-03-01T14:59:44;7.60;99.30
7143;DHT22;3613;48.902;9.204;2023-03-01T15:02:17;7.60;99.90
7143;DHT22;3613;48.902;9.204;2023-03-01T15:04:47;7.60;99.90
7143;DHT22;3613;48.902;9.204;2023-03-01T15:07:14;7.50;99.90
7143;DHT22;3613;48.902;9.204;2023-03-01T15:09:40;7.80;99.90
7143;DHT22;3613;48.902;9.204;2023-03-01T15:12:32;7.50;99.90
7143;DHT22;3613;48.902;9.204;2023-03-01T15:15:00;7.50;99.90
7143;DHT22;3613;48.902;9.204;2023-03-01T15:17:32;7.40;99.80
7143;DHT22;3613;48.902;9.204;2023-03-01T15:20:00;9.90;99.90
7143;DHT22;3613;48.902;9.204;2023-03-01T15:22:27;7.30;99.90
7143;DHT22;3613;48.902;9.204;2023-03-01T15:24:53;7.30;99.90
7143;DHT22;3613;48.902;9.204;2023-03-01T15:27:20;7.30;99.90
7143;DHT22;3613;48.902;9.204;2023-03-01T15:30:00;7.30;99.90
7143;DHT22;3613;48.902;9.204;2023-03-01T15:32:30;7.30;99.70
7143;DHT22;3613;48.902;9.204;2023-03-01T15:34:57;7.30;99.50
7143;DHT22;3613;48.902;9.204;2023-03-01T15:40:29;7.20;99.90
7143;DHT22;3613;48.902;9.204;2023-03-01T15:43:03;7.30;99.90
7143;DHT22;3613;48.902;9.204;2023-03-01T15:45:34;7.30;99.90
7143;DHT22;3613;48.902;9.204;2023-03-01T15:48:20;7.20;99.90
7143;DHT22;3613;48.902;9.204;2023-03-01T15:50:54;7.20;99.90
7143;DHT22;3613;48.902;9.204;2023-03-01T15:53:23;7.10;99.90
7143;DHT22;3613;48.902;9.204;2023-03-01T15:55:48;7.20;99.90
7143;DHT22;3613;48.902;9.204;2023-03-01T15:58:18;7.10;99.90
7143;DHT22;3613;48.902;9.204;2023-03-01T16:00:45;7.10;99.90
7143;DHT22;3613;48.902;9.204;2023-03-01T16:03:15;7.10;99.90
7143;DHT22;3613;48.902;9.204;2023-03-01T16:05:47;7.10;99.90
7143;DHT22;3613;48.902;9.204;2023-03-01T16:08:14;7.10;99.90
7143;DHT22;3613;48.902;9.204;2023-03-01T16:10:41;7.10;99.90
7143;DHT22;3613;48.902;9.204;2023-03-01T16:13:09;7.10;99.90
7143;DHT22;3613;48.902;9.204;2023-03-01T16:15:35;7.00;99.90
7143;DHT22;3613;48.902;9.204;2023-03-01T16:18:07;6.90;99.90
7143;DHT22;3613;48.902;9.204;2023-03-01T16:20:35;7.20;99.90
7143;DHT22;3613;48.902;9.204;2023-03-01T16:23:04;6.80;99.90
7143;DHT22;3613;48.902;9.204;2023-03-01T16:25:31;6.80;99.90
7143;DHT22;3613;48.902;9.204;2023-03-01T16:27:59;6.80;99.90
7143;DHT22;3613;48.902;9.204;2023-03-01T16:30:29;6.70;99.90
7143;DHT22;3613;48.902;9.204;2023-03-01T16:32:57;6.60;99.90
7143;DHT22;3613;48.902;9.204;2023-03-01T16:35:23;6.60;99.90
7143;DHT22;3613;48.902;9.204;2023-03-01T16:37:49;6.50;99.90
7143;DHT22;3613;48.902;9.204;2023-03-01T16:40:27;6.50;99.90
7143;DHT22;3613;48.902;9.204;2023-03-01T16:42:55;6.40;99.90
7143;DHT22;3613;48.902;9.204;2023-03-01T16:45:27;6.40;99.90
7143;DHT22;3613;48.902;9.204;2023-03-01T16:47:53;6.30;99.90
7143;DHT22;3613;48.902;9.204;2023-03-01T16:50:19;6.20;99.90
7143;DHT22;3613;48.902;9.204;2023-03-01T16:52:44;6.10;99.90
7143;DHT22;3613;48.902;9.204;2023-03-01T16:55:10;6.00;99.90
7143;DHT22;3613;48.902;9.204;2023-03-01T16:57:37;6.00;99.90
7143;DHT22;3613;48.902;9.204;2023-03-01T17:00:08;5.90;99.90
7143;DHT22;3613;48.902;9.204;2023-03-01T17:02:39;5.80;99.90
7143;DHT22;3613;48.902;9.204;2023-03-01T17:05:07;5.70;99.90
7143;DHT22;3613;48.902;9.204;2023-03-01T17:07:35;5.50;99.90
7143;DHT22;3613;48.902;9.204;2023-03-01T17:10:06;5.40;99.90
7143;DHT22;3613;48.902;9.204;2023-03-01T17:12:33;5.40;99.90
7143;DHT22;3613;48.902;9.204;2023-03-01T17:14:59;5.30;99.90
7143;DHT22;3613;48.902;9.204;2023-03-01T17:17:25;5.20;99.90
7143;DHT22;3613;48.902;9.204;2023-03-01T17:19:51;5.10;99.90
7143;DHT22;3613;48.902;9.204;2023-03-01T17:22:19;5.00;99.90
7143;DHT22;3613;48.902;9.204;2023-03-01T17:24:45;4.90;99.90
7143;DHT22;3613;48.902;9.204;2023-03-01T17:27:15;5.00;99.90
7143;DHT22;3613;48.902;9.204;2023-03-01T17:29:43;4.80;99.90
7143;DHT22;3613;48.902;9.204;2023-03-01T17:32:12;4.70;99.90
7143;DHT22;3613;48.902;9.204;2023-03-01T17:34:38;4.50;99.90
7143;DHT22;3613;48.902;9.204;2023-03-01T17:37:03;4.40;99.90
7143;DHT22;3613;48.902;9.204;2023-03-01T17:39:29;4.30;99.90
7143;DHT22;3613;48.902;9.204;2023-03-01T17:42:01;4.20;99.90
7143;DHT22;3613;48.902;9.204;2023-03-01T17:44:27;4.40;99.90
7143;DHT22;3613;48.902;9.204;2023-03-01T17:46:55;5.80;99.90
7143;DHT22;3613;48.902;9.204;2023-03-01T17:49:20;4.20;99.90
7143;DHT22;3613;48.902;9.204;2023-03-01T17:51:46;4.20;99.90
7143;DHT22;3613;48.902;9.204;2023-03-01T17:54:11;4.00;99.90
7143;DHT22;3613;48.902;9.204;2023-03-01T17:56:37;4.00;99.90
7143;DHT22;3613;48.902;9.204;2023-03-01T17:59:07;3.90;99.90
7143;DHT22;3613;48.902;9.204;2023-03-01T18:01:35;4.00;99.90
7143;DHT22;3613;48.902;9.204;2023-03-01T18:04:00;3.90;99.90
7143;DHT22;3613;48.902;9.204;2023-03-01T18:06:27;3.90;99.90
7143;DHT22;3613;48.902;9.204;2023-03-01T18:08:53;3.90;99.90
7143;DHT22;3613;48.902;9.204;2023-03-01T18:11:21;3.80;99.90
7143;DHT22;3613;48.902;9.204;2023-03-01T18:13:47;3.70;99.90
7143;DHT22;3613;48.902;9.204;2023-03-01T18:16:21;3.60;99.90
7143;DHT22;3613;48.902;9.204;2023-03-01T18:18:51;3.60;99.90
7143;DHT22;3613;48.902;9.204;2023-03-01T18:21:17;3.50;99.90
7143;DHT22;3613;48.902;9.204;2023-03-01T18:23:48;3.40;99.90
7143;DHT22;3613;48.902;9.204;2023-03-01T18:26:14;3.30;99.90
7143;DHT22;3613;48.902;9.204;2023-03-01T18:28:42;3.10;99.90
7143;DHT22;3613;48.902;9.204;2023-03-01T18:31:13;3.20;99.90
7143;DHT22;3613;48.902;9.204;2023-03-01T18:33:42;3.10;99.90